Time;durP1;ratioP1;P1;durP2;ratioP2;P2;SDS_P1;SDS_P2;PMS_P1;PMS_P2;Temp;Humidity;BMP_temperature;BMP_pressure;BME280_temperature;BME280_humidity;BME280_pressure;Samples;Min_cycle;Max_cycle;Signal;HPM_P1;HPM_P2
2021/04/30 00:02:03;;;;;;;85.15;78.78;;;19.70;99.90;;;;;;5076430;28;20028;-67
2021/04/30 00:04:30;;;;;;;83.75;76.90;;;19.80;99.90;;;;;;5076312;28;20385;-68
2021/04/30 00:06:58;;;;;;;84.60;78.28;;;19.80;99.90;;;;;;5075026;28;20062;-69
2021/04/30 00:09:25;;;;;;;81.38;75.57;;;20.10;99.90;;;;;;5076726;28;20024;-67
2021/04/30 00:11:53;;;;;;;71.93;66.22;;;20.20;99.90;;;;;;5076519;28;20032;-67
2021/04/30 00:14:21;;;;;;;79.25;73.18;;;20.10;99.90;;;;;;5076302;28;20077;-67
2021/04/30 00:16:52;;;;;;;83.15;76.85;;;20.10;99.90;;;;;;5074949;28;20029;-67
2021/04/30 00:19:25;;;;;;;80.50;74.13;;;20.20;99.90;;;;;;5074862;28;20493;-68
2021/04/30 00:21:53;;;;;;;74.60;68.97;;;20.50;99.90;;;;;;5075994;28;20109;-67
2021/04/30 00:24:20;;;;;;;80.43;74.30;;;20.70;99.90;;;;;;5076011;28;20055;-67
2021/04/30 00:26:48;;;;;;;70.30;64.95;;;20.60;99.90;;;;;;5075982;28;20032;-67
2021/04/30 00:29:15;;;;;;;67.90;62.75;;;20.70;99.90;;;;;;5076036;28;20095;-67
2021/04/30 00:31:43;;;;;;;74.55;68.97;;;20.90;99.90;;;;;;5075959;28;20020;-67
2021/04/30 00:34:10;;;;;;;70.82;65.57;;;21.00;99.90;;;;;;5075997;28;20115;-67
2021/04/30 00:36:38;;;;;;;68.45;63.15;;;21.00;99.90;;;;;;5075874;28;20035;-67
2021/04/30 00:39:06;;;;;;;66.93;61.78;;;20.90;99.90;;;;;;5075632;28;20071;-67
2021/04/30 00:41:33;;;;;;;62.08;57.50;;;21.20;99.90;;;;;;5075857;28;20020;-66
2021/04/30 00:44:08;;;;;;;68.60;63.60;;;21.20;99.90;;;;;;5075456;28;20489;-67
2021/04/30 00:46:35;;;;;;;58.83;54.40;;;21.20;99.90;;;;;;5075697;28;20021;-66
2021/04/30 00:49:03;;;;;;;54.92;51.13;;;21.50;99.90;;;;;;5075724;28;20023;-66
2021/04/30 00:51:31;;;;;;;61.10;56.53;;;21.60;99.90;;;;;;5075581;28;20145;-65
2021/04/30 00:53:58;;;;;;;56.13;52.08;;;21.60;99.90;;;;;;5075530;28;20056;-64
2021/04/30 00:56:26;;;;;;;60.25;55.55;;;21.60;99.90;;;;;;5075559;28;20049;-66
2021/04/30 00:58:53;;;;;;;56.40;51.97;;;21.50;99.90;;;;;;5075451;28;20016;-66
2021/04/30 01:01:21;;;;;;;51.65;47.45;;;21.50;99.90;;;;;;5075333;28;20028;-64
2021/04/30 01:03:49;;;;;;;48.22;44.58;;;21.50;99.90;;;;;;5075311;28;20489;-65
2021/04/30 01:06:17;;;;;;;48.00;44.30;;;21.30;99.90;;;;;;5075475;28;20026;-64
2021/04/30 01:08:44;;;;;;;47.70;44.20;;;21.60;99.90;;;;;;5075180;28;20073;-64
2021/04/30 01:11:12;;;;;;;42.83;39.55;;;21.70;99.90;;;;;;5075526;28;20063;-66
2021/04/30 01:13:39;;;;;;;35.92;33.33;;;21.70;99.90;;;;;;5075337;28;20393;-67
2021/04/30 01:16:10;;;;;;;41.60;38.25;;;21.80;99.90;;;;;;5075252;28;20040;-65
2021/04/30 01:18:48;;;;;;;40.55;37.53;;;22.00;99.90;;;;;;5075724;28;20511;-64
2021/04/30 01:21:15;;;;;;;37.45;34.55;;;22.10;99.90;;;;;;5074971;28;20078;-65
2021/04/30 01:23:53;;;;;;;41.58;38.42;;;22.10;99.90;;;;;;5074943;28;20500;-64
2021/04/30 01:26:22;;;;;;;37.83;35.00;;;22.10;99.90;;;;;;5074958;28;20032;-65
2021/04/30 01:28:50;;;;;;;39.42;36.45;;;22.40;99.90;;;;;;5075040;28;20017;-65
2021/04/30 01:31:18;;;;;;;37.97;34.88;;;22.30;99.90;;;;;;5073459;28;20054;-65
2021/04/30 01:33:54;;;;;;;33.67;31.02;;;22.10;99.90;;;;;;5074706;28;20477;-66
2021/04/30 01:36:21;;;;;;;36.17;33.28;;;21.80;99.90;;;;;;5074691;28;20113;-66
2021/04/30 01:38:49;;;;;;;42.00;38.50;;;21.60;99.90;;;;;;5074402;28;20071;-65
2021/04/30 01:41:22;;;;;;;44.25;40.63;;;21.50;99.90;;;;;;5074409;28;20503;-65
2021/04/30 01:43:50;;;;;;;43.80;40.38;;;21.70;99.90;;;;;;5074485;28;20039;-66
2021/04/30 01:46:18;;;;;;;37.00;33.83;;;22.20;99.90;;;;;;5074653;28;20108;-65
2021/04/30 01:48:46;;;;;;;31.50;29.05;;;22.60;99.90;;;;;;5074501;28;20023;-65
2021/04/30 01:51:17;;;;;;;29.98;27.60;;;22.80;99.90;;;;;;5074500;28;20032;-65
2021/04/30 01:53:44;;;;;;;;;;;22.90;99.90;;;;;;5074805;28;20052;-65
2021/04/30 01:56:15;;;;;;;28.25;25.73;;;22.90;99.90;;;;;;5073546;28;19905;-66
2021/04/30 01:58:44;;;;;;;28.25;25.75;;;23.60;99.90;;;;;;5074533;28;20027;-65
2021/04/30 02:01:12;;;;;;;23.83;21.77;;;23.60;99.90;;;;;;5072908;28;20028;-66
2021/04/30 02:03:40;;;;;;;22.13;20.17;;;23.10;99.90;;;;;;5073940;28;20363;-60
2021/04/30 02:06:07;;;;;;;18.85;17.23;;;22.60;99.90;;;;;;5073826;28;20107;-61
2021/04/30 02:08:35;;;;;;;18.40;16.90;;;22.80;99.90;;;;;;5073779;28;20074;-62
2021/04/30 02:11:03;;;;;;;17.33;15.88;;;23.20;99.90;;;;;;5073836;28;20025;-62
2021/04/30 02:13:30;;;;;;;17.25;16.02;;;22.90;99.90;;;;;;5073657;28;20427;-62
2021/04/30 02:15:58;;;;;;;15.82;14.43;;;23.00;99.90;;;;;;5073776;28;20028;-61
2021/04/30 02:18:26;;;;;;;15.25;14.05;;;23.00;99.90;;;;;;5073663;28;20034;-61
2021/04/30 02:20:54;;;;;;;16.10;14.90;;;23.20;99.90;;;;;;5073548;28;20036;-61
2021/04/30 02:23:21;;;;;;;16.23;14.93;;;23.40;99.90;;;;;;5073437;28;20028;-61
2021/04/30 02:25:49;;;;;;;15.10;13.70;;;23.10;99.90;;;;;;5073500;28;20021;-61
2021/04/30 02:28:17;;;;;;;14.43;12.88;;;22.90;99.90;;;;;;5073611;28;20024;-61
2021/04/30 02:30:44;;;;;;;13.68;12.48;;;23.00;99.90;;;;;;5073511;28;20021;-61
2021/04/30 02:33:12;;;;;;;21.42;14.93;;;23.50;99.90;;;;;;5073402;28;20024;-61
2021/04/30 02:35:45;;;;;;;13.77;12.38;;;24.20;99.90;;;;;;5073382;28;20028;-62
2021/04/30 02:38:15;;;;;;;58.58;18.88;;;24.40;99.90;;;;;;5073328;28;20095;-61
2021/04/30 02:40:45;;;;;;;14.60;11.23;;;24.50;99.90;;;;;;5073204;28;20045;-61
2021/04/30 02:43:18;;;;;;;9.32;8.50;;;24.50;99.90;;;;;;5073341;28;20570;-63
2021/04/30 02:45:51;;;;;;;9.00;8.20;;;24.60;99.90;;;;;;5073255;28;20044;-62
2021/04/30 02:48:26;;;;;;;8.45;7.85;;;24.70;99.90;;;;;;5073309;28;20028;-62
2021/04/30 02:50:54;;;;;;;8.18;7.57;;;25.00;99.90;;;;;;5073202;28;20550;-62
2021/04/30 02:53:21;;;;;;;8.02;7.32;;;24.70;99.90;;;;;;5073521;28;20062;-66
2021/04/30 02:55:49;;;;;;;8.30;6.28;;;25.00;99.80;;;;;;5073347;28;20029;-66
2021/04/30 02:58:16;;;;;;;7.72;7.00;;;25.20;98.90;;;;;;5073266;28;20036;-65
2021/04/30 03:00:44;;;;;;;8.45;7.85;;;24.70;99.90;;;;;;5073219;28;20020;-66
2021/04/30 03:03:11;;;;;;;8.15;7.47;;;24.90;99.90;;;;;;5073207;28;20133;-64
2021/04/30 03:05:39;;;;;;;10.93;7.43;;;25.10;99.90;;;;;;5071784;28;20111;-63
2021/04/30 03:08:06;;;;;;;7.72;7.03;;;25.00;99.50;;;;;;5073021;28;20082;-61
2021/04/30 03:10:34;;;;;;;6.93;6.35;;;25.20;98.40;;;;;;5073045;28;20031;-61
2021/04/30 03:13:01;;;;;;;6.70;6.20;;;24.80;99.10;;;;;;5073035;28;20469;-62
2021/04/30 03:15:29;;;;;;;6.35;5.90;;;25.20;99.20;;;;;;5072986;28;20477;-62
2021/04/30 03:17:56;;;;;;;6.28;5.68;;;25.50;99.20;;;;;;5072940;28;20073;-61
2021/04/30 03:20:24;;;;;;;5.95;5.55;;;25.20;99.50;;;;;;5072711;28;20056;-61
2021/04/30 03:22:51;;;;;;;6.20;5.68;;;25.20;99.70;;;;;;5073013;28;20062;-62
2021/04/30 03:25:19;;;;;;;5.88;5.32;;;25.10;99.90;;;;;;5073073;28;20078;-61
2021/04/30 03:27:47;;;;;;;4.68;4.28;;;25.20;99.90;;;;;;5072854;28;20494;-61
2021/04/30 03:30:15;;;;;;;9.70;6.15;;;25.50;98.80;;;;;;5072721;28;20025;-61
2021/04/30 03:32:43;;;;;;;5.47;5.07;;;25.10;98.70;;;;;;5072734;28;20029;-61
2021/04/30 03:35:16;;;;;;;5.70;5.20;;;25.20;99.10;;;;;;5072394;28;20058;-62
2021/04/30 03:37:43;;;;;;;11.52;6.38;;;24.60;98.50;;;;;;5072585;28;20035;-61
2021/04/30 03:40:11;;;;;;;7.40;6.22;;;24.50;99.30;;;;;;5072469;28;20112;-61
2021/04/30 03:42:38;;;;;;;7.07;6.57;;;24.20;99.40;;;;;;5072866;28;20028;-61
2021/04/30 03:45:07;;;;;;;6.80;6.40;;;24.50;99.90;;;;;;5072957;28;20100;-63
2021/04/30 03:47:34;;;;;;;6.30;5.90;;;24.70;99.90;;;;;;5072613;28;20104;-61
2021/04/30 03:50:02;;;;;;;5.50;5.07;;;25.00;99.90;;;;;;5072690;28;20397;-62
2021/04/30 03:52:29;;;;;;;8.40;7.75;;;24.70;99.40;;;;;;5072574;28;20025;-63
2021/04/30 03:54:56;;;;;;;7.57;6.97;;;25.00;99.90;;;;;;5072581;28;20031;-62
2021/04/30 03:57:23;;;;;;;8.20;7.47;;;25.00;99.90;;;;;;5072349;28;20070;-62
2021/04/30 03:59:51;;;;;;;7.30;6.70;;;24.80;99.90;;;;;;5072379;28;20120;-62
2021/04/30 04:02:18;;;;;;;7.57;6.90;;;24.60;99.90;;;;;;5072289;28;20028;-63
2021/04/30 04:04:45;;;;;;;8.70;7.88;;;24.70;99.90;;;;;;5072317;28;20017;-62
2021/04/30 04:07:13;;;;;;;7.97;7.47;;;24.50;99.90;;;;;;5072767;28;20048;-62
2021/04/30 04:09:40;;;;;;;7.38;6.88;;;24.20;99.90;;;;;;5072454;28;20107;-62
2021/04/30 04:12:08;;;;;;;9.05;7.78;;;24.20;99.90;;;;;;5072238;28;20165;-63
2021/04/30 04:14:35;;;;;;;6.97;6.38;;;23.80;99.90;;;;;;5072550;28;20032;-61
2021/04/30 04:17:03;;;;;;;6.90;6.40;;;23.40;99.90;;;;;;5072139;28;20025;-62
2021/04/30 04:19:30;;;;;;;6.88;6.28;;;23.60;99.90;;;;;;5075391;28;20082;-62
2021/04/30 04:21:57;;;;;;;7.60;6.97;;;23.50;99.90;;;;;;5075930;28;20023;-62
2021/04/30 04:24:25;;;;;;;7.90;6.85;;;23.60;99.90;;;;;;5075877;28;20028;-62
2021/04/30 04:26:52;;;;;;;6.22;5.82;;;23.50;99.90;;;;;;5075867;28;20012;-62
2021/04/30 04:29:20;;;;;;;6.68;6.13;;;23.40;99.90;;;;;;5075806;28;20016;-62
2021/04/30 04:31:48;;;;;;;6.05;5.55;;;23.40;99.90;;;;;;5075707;28;20043;-62
2021/04/30 04:34:15;;;;;;;6.40;5.90;;;23.50;99.90;;;;;;5075782;28;20104;-60
2021/04/30 04:36:43;;;;;;;5.97;5.65;;;23.40;99.90;;;;;;5075704;28;20021;-61
2021/04/30 04:39:10;;;;;;;6.60;6.20;;;23.10;99.90;;;;;;5075498;28;20047;-63
2021/04/30 04:41:38;;;;;;;7.90;7.28;;;23.00;99.90;;;;;;5075707;28;20021;-61
2021/04/30 04:44:05;;;;;;;7.20;6.72;;;23.10;99.90;;;;;;5075644;28;20051;-61
2021/04/30 04:46:33;;;;;;;7.10;6.60;;;23.10;99.90;;;;;;5075590;28;20433;-60
2021/04/30 04:49:00;;;;;;;8.13;7.38;;;23.20;99.90;;;;;;5075375;28;20047;-61
2021/04/30 04:51:27;;;;;;;7.72;7.13;;;23.00;99.90;;;;;;5075456;28;20032;-63
2021/04/30 04:53:55;;;;;;;8.75;8.10;;;22.80;99.90;;;;;;5074204;28;20020;-63
2021/04/30 04:56:25;;;;;;;9.07;8.52;;;22.70;99.90;;;;;;5075348;28;20024;-62
2021/04/30 04:58:54;;;;;;;8.88;8.32;;;22.80;99.90;;;;;;5075326;28;20032;-62
2021/04/30 05:01:22;;;;;;;12.65;10.90;;;22.90;99.90;;;;;;5075174;28;20082;-62
2021/04/30 05:03:50;;;;;;;9.98;9.20;;;22.70;99.90;;;;;;5075213;28;20020;-62
2021/04/30 05:06:17;;;;;;;10.35;9.70;;;22.70;99.90;;;;;;5075311;28;20048;-62
2021/04/30 05:08:44;;;;;;;10.48;9.55;;;22.70;99.90;;;;;;5075128;28;20055;-61
2021/04/30 05:11:12;;;;;;;10.32;9.60;;;22.50;99.90;;;;;;5075266;28;20549;-66
2021/04/30 05:13:40;;;;;;;9.18;8.50;;;22.50;99.90;;;;;;5073977;28;20033;-67
2021/04/30 05:16:07;;;;;;;7.85;7.32;;;22.40;99.90;;;;;;5075221;28;20075;-68
2021/04/30 05:18:35;;;;;;;7.70;7.28;;;22.30;99.90;;;;;;5075424;28;20067;-68
2021/04/30 05:21:02;;;;;;;7.78;7.28;;;22.10;99.90;;;;;;5075036;28;20370;-68
2021/04/30 05:23:30;;;;;;;8.38;7.88;;;22.00;99.90;;;;;;5075009;28;20024;-68
2021/04/30 05:25:57;;;;;;;9.02;8.30;;;21.80;99.90;;;;;;5074971;28;20033;-67
2021/04/30 05:28:25;;;;;;;9.32;8.82;;;21.90;99.90;;;;;;5074931;28;20017;-67
2021/04/30 05:30:53;;;;;;;9.85;8.95;;;21.90;99.90;;;;;;5073741;28;20028;-67
2021/04/30 05:33:20;;;;;;;9.07;8.40;;;21.80;99.90;;;;;;5074804;28;20519;-67
2021/04/30 05:35:48;;;;;;;10.00;9.25;;;21.60;99.90;;;;;;5074814;28;20400;-67
2021/04/30 05:38:16;;;;;;;9.40;8.90;;;21.60;99.90;;;;;;5074910;28;20024;-67
2021/04/30 05:40:43;;;;;;;9.50;8.90;;;21.50;99.90;;;;;;5074479;28;20042;-67
2021/04/30 05:43:16;;;;;;;9.23;8.77;;;21.50;99.90;;;;;;5074677;28;20023;-67
2021/04/30 05:45:46;;;;;;;9.27;8.68;;;21.20;99.90;;;;;;5074569;28;20538;-69
2021/04/30 05:48:14;;;;;;;9.32;8.82;;;21.10;99.90;;;;;;5073156;28;20025;-68
2021/04/30 05:50:41;;;;;;;10.07;9.68;;;20.90;99.90;;;;;;5074489;28;20412;-68
2021/04/30 05:53:09;;;;;;;10.85;10.35;;;21.00;99.90;;;;;;5074388;28;20433;-67
2021/04/30 05:55:36;;;;;;;13.20;12.50;;;21.00;99.90;;;;;;5072861;28;20060;-66
2021/04/30 05:58:03;;;;;;;11.95;11.23;;;21.00;99.90;;;;;;5074256;28;20107;-66
2021/04/30 06:00:31;;;;;;;22.48;13.90;;;20.90;99.90;;;;;;5074187;28;20440;-67
2021/04/30 06:03:02;;;;;;;15.82;12.85;;;20.90;99.90;;;;;;5074033;28;20137;-67
2021/04/30 06:05:29;;;;;;;27.92;14.23;;;20.90;99.90;;;;;;5074170;28;20021;-69
2021/04/30 06:07:56;;;;;;;14.18;12.95;;;20.90;99.90;;;;;;5074050;28;20062;-66
2021/04/30 06:10:24;;;;;;;25.33;13.93;;;20.80;99.90;;;;;;5074101;28;20032;-67
2021/04/30 06:13:11;;;;;;;13.93;12.73;;;20.70;99.90;;;;;;5073942;28;20074;-66
2021/04/30 06:15:38;;;;;;;13.55;12.50;;;20.60;99.90;;;;;;5073825;28;20508;-69
2021/04/30 06:18:06;;;;;;;28.52;15.85;;;20.60;99.90;;;;;;5073939;28;20025;-68
2021/04/30 06:20:33;;;;;;;13.82;12.50;;;20.60;99.90;;;;;;5073726;28;20477;-66
2021/04/30 06:23:00;;;;;;;28.00;14.95;;;20.50;99.90;;;;;;5073815;28;20082;-67
2021/04/30 06:25:28;;;;;;;21.60;16.13;;;20.40;99.90;;;;;;5073783;28;20021;-68
2021/04/30 06:27:55;;;;;;;24.65;16.05;;;20.40;99.90;;;;;;5073733;28;20028;-65
2021/04/30 06:30:22;;;;;;;38.30;17.20;;;20.40;99.90;;;;;;5073737;28;20477;-67
2021/04/30 06:32:50;;;;;;;18.40;13.93;;;20.40;99.90;;;;;;5073664;28;20036;-65
2021/04/30 06:35:21;;;;;;;14.55;13.20;;;20.30;99.90;;;;;;5073873;28;20017;-66
2021/04/30 06:37:49;;;;;;;14.20;13.30;;;20.10;99.90;;;;;;5073665;28;20397;-64
2021/04/30 06:40:16;;;;;;;15.80;14.25;;;20.10;99.90;;;;;;5073144;28;20504;-64
2021/04/30 06:42:44;;;;;;;26.98;16.92;;;20.00;99.90;;;;;;5073424;28;20024;-66
2021/04/30 06:45:11;;;;;;;17.85;16.02;;;19.80;99.90;;;;;;5073455;28;20389;-66
2021/04/30 06:47:39;;;;;;;34.58;19.35;;;19.80;99.90;;;;;;5073435;28;20021;-66
2021/04/30 06:50:07;;;;;;;16.85;15.65;;;19.70;99.90;;;;;;5073476;28;20036;-65
2021/04/30 06:52:34;;;;;;;17.27;16.08;;;19.60;99.90;;;;;;5073473;28;20055;-65
2021/04/30 06:55:02;;;;;;;17.60;16.50;;;19.50;99.90;;;;;;5073280;28;20025;-66
2021/04/30 06:57:29;;;;;;;17.05;16.25;;;19.40;99.90;;;;;;5073339;28;20074;-66
2021/04/30 07:00:06;;;;;;;18.30;17.42;;;19.30;99.90;;;;;;5073440;28;20021;-66
2021/04/30 07:02:34;;;;;;;19.98;19.08;;;19.30;99.90;;;;;;5073193;28;20489;-66
2021/04/30 07:05:02;;;;;;;20.33;19.33;;;19.20;99.90;;;;;;5073039;28;20025;-66
2021/04/30 07:07:41;;;;;;;20.52;19.10;;;19.10;99.90;;;;;;5073212;28;20020;-66
2021/04/30 07:10:09;;;;;;;20.40;19.40;;;19.00;99.90;;;;;;5073275;28;20386;-66
2021/04/30 07:12:40;;;;;;;20.80;19.65;;;19.00;99.90;;;;;;5073167;28;20104;-66
2021/04/30 07:15:09;;;;;;;21.35;20.15;;;18.90;99.90;;;;;;5073249;28;20124;-66
2021/04/30 07:17:40;;;;;;;21.35;20.55;;;18.80;99.90;;;;;;5073139;28;20025;-66
2021/04/30 07:20:09;;;;;;;;;;;18.70;99.90;;;;;;5073406;28;20385;-66
2021/04/30 07:22:36;;;;;;;22.02;21.00;;;18.70;99.90;;;;;;5072989;28;20007;-66
2021/04/30 07:25:04;;;;;;;21.67;20.67;;;18.60;99.90;;;;;;5072995;28;20021;-67
2021/04/30 07:27:32;;;;;;;22.33;21.30;;;18.60;99.90;;;;;;5072929;28;20013;-66
2021/04/30 07:30:00;;;;;;;22.30;21.30;;;18.50;99.90;;;;;;5072853;28;20028;-66
2021/04/30 07:32:27;;;;;;;22.75;21.65;;;18.40;99.90;;;;;;5072920;28;20048;-66
2021/04/30 07:34:55;;;;;;;23.58;22.40;;;18.40;99.90;;;;;;5072663;28;20036;-63
2021/04/30 07:37:22;;;;;;;24.23;22.98;;;18.30;99.90;;;;;;5072618;28;20497;-64
2021/04/30 07:39:49;;;;;;;24.92;23.73;;;18.30;99.90;;;;;;5071306;28;20409;-65
2021/04/30 07:42:17;;;;;;;25.55;24.25;;;18.20;99.90;;;;;;5071657;28;20017;-65
2021/04/30 07:44:46;;;;;;;27.20;24.95;;;18.20;99.90;;;;;;5072950;28;20449;-65
2021/04/30 07:47:14;;;;;;;26.48;25.08;;;18.20;99.90;;;;;;5072808;28;20024;-64
2021/04/30 07:49:41;;;;;;;26.58;24.98;;;18.20;99.90;;;;;;5072698;28;20111;-65
2021/04/30 07:52:09;;;;;;;27.48;25.75;;;18.10;99.90;;;;;;5071519;28;20082;-65
2021/04/30 07:54:37;;;;;;;27.10;25.65;;;18.10;99.90;;;;;;5076319;28;20115;-65
2021/04/30 07:57:09;;;;;;;27.95;26.55;;;18.00;99.90;;;;;;5076884;28;20389;-65
2021/04/30 07:59:36;;;;;;;28.65;27.23;;;18.00;99.90;;;;;;5076540;28;20046;-65
2021/04/30 08:02:07;;;;;;;28.90;27.38;;;17.90;99.90;;;;;;5076519;28;20021;-65
2021/04/30 08:04:34;;;;;;;;;;;17.90;99.90;;;;;;5076893;28;20445;-65
2021/04/30 08:07:01;;;;;;;30.23;28.73;;;17.90;99.90;;;;;;5076465;28;20361;-65
2021/04/30 08:09:29;;;;;;;30.17;28.58;;;17.80;99.90;;;;;;5076403;28;20021;-65
2021/04/30 08:11:56;;;;;;;31.58;29.88;;;17.80;99.90;;;;;;5075095;28;20020;-65
2021/04/30 08:14:26;;;;;;;32.42;30.52;;;17.70;99.90;;;;;;5076276;28;20032;-64
2021/04/30 08:16:53;;;;;;;34.40;32.30;;;17.70;99.90;;;;;;5076160;28;20024;-65
2021/04/30 08:19:21;;;;;;;34.53;32.45;;;17.60;99.90;;;;;;5076396;28;20029;-65
2021/04/30 08:21:48;;;;;;;36.28;34.08;;;17.70;99.90;;;;;;5076134;28;20374;-66
2021/04/30 08:24:15;;;;;;;36.70;34.30;;;17.60;99.90;;;;;;5076143;28;20012;-65
2021/04/30 08:26:59;;;;;;;36.85;34.65;;;17.70;99.90;;;;;;5076176;28;20036;-65
2021/04/30 08:29:26;;;;;;;37.35;35.10;;;17.60;99.90;;;;;;5076091;28;20024;-65
2021/04/30 08:31:54;;;;;;;38.15;35.75;;;17.60;99.90;;;;;;5076037;28;20025;-65
2021/04/30 08:34:22;;;;;;;37.95;35.50;;;17.60;99.90;;;;;;5075875;28;20115;-65
2021/04/30 08:43:20;;;;;;;39.58;36.97;;;17.60;99.90;;;;;;5070524;28;20044;-64
2021/04/30 08:45:47;;;;;;;40.60;37.95;;;17.60;99.90;;;;;;5075755;28;20401;-64
2021/04/30 08:48:15;;;;;;;38.55;35.75;;;17.60;99.90;;;;;;5075689;28;20024;-66
2021/04/30 08:50:47;;;;;;;38.85;36.25;;;17.60;99.90;;;;;;5075688;28;20063;-66
2021/04/30 08:53:15;;;;;;;38.65;36.25;;;17.60;99.90;;;;;;5075752;28;20055;-67
2021/04/30 08:55:44;;;;;;;39.47;37.10;;;17.50;99.90;;;;;;5074397;28;20032;-67
2021/04/30 08:58:12;;;;;;;41.03;38.30;;;17.50;99.90;;;;;;5075798;28;20060;-67
2021/04/30 09:00:40;;;;;;;40.70;38.30;;;17.50;99.90;;;;;;5075404;28;20086;-67
2021/04/30 09:03:10;;;;;;;41.00;38.40;;;17.40;99.90;;;;;;5075405;28;20036;-67
2021/04/30 09:05:50;;;;;;;42.10;39.40;;;17.40;99.90;;;;;;5075208;28;20017;-67
2021/04/30 09:08:18;;;;;;;41.15;38.65;;;17.40;99.90;;;;;;5075357;28;20028;-67
2021/04/30 09:10:52;;;;;;;40.97;38.47;;;17.40;99.90;;;;;;5075356;28;20062;-65
2021/04/30 09:13:22;;;;;;;41.55;39.05;;;17.30;99.90;;;;;;5075643;28;20161;-65
2021/04/30 09:16:03;;;;;;;41.70;39.10;;;17.30;99.90;;;;;;5075193;28;20477;-61
2021/04/30 09:18:32;;;;;;;41.83;39.22;;;17.30;99.90;;;;;;5075181;28;20473;-63
2021/04/30 09:21:13;;;;;;;43.35;40.67;;;17.30;99.90;;;;;;5074870;28;20024;-64
2021/04/30 09:23:41;;;;;;;42.92;40.30;;;17.30;99.90;;;;;;5074983;28;20024;-65
2021/04/30 09:26:28;;;;;;;40.78;38.15;;;17.30;99.90;;;;;;5075028;28;20017;-65
2021/04/30 09:29:05;;;;;;;41.97;39.28;;;17.30;99.90;;;;;;5075314;28;20560;-63
2021/04/30 09:31:36;;;;;;;41.45;38.67;;;17.30;99.90;;;;;;5074879;28;20055;-63
2021/04/30 09:34:23;;;;;;;41.08;38.47;;;17.30;99.90;;;;;;5074772;28;20024;-63
2021/04/30 09:36:57;;;;;;;42.65;39.80;;;17.30;99.90;;;;;;5074794;28;20024;-65
2021/04/30 09:39:25;;;;;;;43.63;40.58;;;17.20;99.90;;;;;;5074634;28;20085;-60
2021/04/30 09:42:06;;;;;;;42.13;39.42;;;17.20;99.90;;;;;;5074424;28;20044;-66
2021/04/30 09:44:42;;;;;;;42.80;39.88;;;17.20;99.90;;;;;;5074707;28;20013;-66
2021/04/30 09:47:13;;;;;;;41.53;38.92;;;17.20;99.90;;;;;;5074706;28;20440;-63
2021/04/30 09:49:40;;;;;;;41.50;38.80;;;17.10;99.90;;;;;;5074333;28;20112;-61
2021/04/30 09:52:08;;;;;;;41.75;39.13;;;17.10;99.90;;;;;;5074615;28;20024;-65
2021/04/30 09:54:39;;;;;;;41.55;38.85;;;17.00;99.90;;;;;;5073182;28;20168;-64
2021/04/30 09:57:19;;;;;;;41.90;39.20;;;17.10;99.90;;;;;;5074748;28;20078;-64
2021/04/30 10:00:08;;;;;;;42.45;39.80;;;17.00;99.90;;;;;;5074267;28;20036;-64
2021/04/30 10:02:37;;;;;;;41.25;38.58;;;17.00;99.90;;;;;;5074308;28;20082;-64
2021/04/30 10:05:21;;;;;;;42.00;39.28;;;17.00;99.90;;;;;;5074314;28;20385;-64
2021/04/30 10:07:49;;;;;;;40.72;38.13;;;17.00;99.90;;;;;;5074223;28;20099;-63
2021/04/30 10:10:25;;;;;;;41.60;38.90;;;17.00;99.90;;;;;;5074304;28;20032;-65
2021/04/30 10:12:58;;;;;;;38.97;36.38;;;17.00;99.90;;;;;;5074211;28;20086;-65
2021/04/30 10:15:27;;;;;;;40.45;37.65;;;17.00;99.90;;;;;;5073488;28;20024;-66
2021/04/30 10:17:59;;;;;;;40.47;37.47;;;16.90;99.90;;;;;;5074101;28;20393;-65
2021/04/30 10:20:27;;;;;;;38.40;35.75;;;16.90;99.90;;;;;;5073893;28;20094;-63
2021/04/30 10:22:57;;;;;;;39.78;37.08;;;16.90;99.90;;;;;;5074054;28;20448;-65
2021/04/30 10:25:26;;;;;;;40.72;37.90;;;16.90;99.90;;;;;;5073839;28;20370;-64
2021/04/30 10:27:56;;;;;;;40.45;37.65;;;16.80;99.90;;;;;;5074204;28;20407;-64
2021/04/30 10:30:35;;;;;;;39.35;36.65;;;16.90;99.90;;;;;;5073954;28;20028;-64
2021/04/30 10:33:17;;;;;;;40.58;37.78;;;16.90;99.90;;;;;;5073860;28;20131;-64
2021/04/30 10:36:05;;;;;;;41.78;38.58;;;16.80;99.90;;;;;;5073626;28;20036;-64
2021/04/30 10:38:40;;;;;;;42.60;39.55;;;16.90;99.90;;;;;;5073699;28;20078;-64
2021/04/30 10:41:10;;;;;;;43.28;40.17;;;17.00;99.90;;;;;;5073601;28;20103;-64
2021/04/30 10:43:39;;;;;;;43.78;40.70;;;16.90;99.90;;;;;;5072718;28;20072;-64
2021/04/30 10:46:16;;;;;;;44.90;41.60;;;16.90;99.90;;;;;;5072754;28;20503;-64
2021/04/30 10:49:05;;;;;;;43.47;40.38;;;16.90;99.90;;;;;;5072950;28;20070;-64
2021/04/30 10:51:37;;;;;;;44.63;41.55;;;16.90;99.90;;;;;;5071714;28;20029;-64
2021/04/30 10:54:27;;;;;;;44.05;41.15;;;16.90;99.90;;;;;;5072632;28;20031;-60
2021/04/30 10:57:09;;;;;;;45.83;42.72;;;16.90;99.90;;;;;;5071811;28;20025;-65
2021/04/30 10:59:38;;;;;;;45.20;42.03;;;16.90;99.90;;;;;;5072712;28;20501;-65
2021/04/30 11:02:27;;;;;;;47.50;44.50;;;16.90;99.90;;;;;;5072391;28;20032;-65
2021/04/30 11:05:10;;;;;;;44.92;41.85;;;16.90;99.90;;;;;;5072352;28;20480;-64
2021/04/30 11:07:43;;;;;;;44.47;41.38;;;16.90;99.90;;;;;;5072501;28;20012;-65
2021/04/30 11:10:23;;;;;;;43.38;40.33;;;16.90;99.90;;;;;;5072498;28;20021;-65
2021/04/30 11:13:00;;;;;;;43.58;40.33;;;16.90;99.90;;;;;;5072625;28;20052;-65
2021/04/30 11:15:32;;;;;;;42.40;39.50;;;16.90;99.90;;;;;;5072369;28;20059;-65
2021/04/30 11:18:03;;;;;;;43.00;39.90;;;16.80;99.90;;;;;;5072465;28;20050;-65
2021/04/30 11:20:33;;;;;;;43.33;40.33;;;16.70;99.90;;;;;;5072376;28;20393;-64
2021/04/30 11:23:19;;;;;;;44.63;41.38;;;16.70;99.90;;;;;;5072125;28;20074;-62
2021/04/30 11:26:03;;;;;;;44.13;41.13;;;16.80;99.90;;;;;;5072136;28;20150;-66
2021/04/30 11:28:31;;;;;;;43.65;40.45;;;16.80;99.90;;;;;;5070977;28;20416;-66
2021/04/30 11:31:37;;;;;;;44.58;41.13;;;16.80;99.90;;;;;;5072063;28;20028;-66
2021/04/30 11:34:20;;;;;;;44.08;41.13;;;16.80;99.90;;;;;;5069202;28;20369;-64
2021/04/30 11:36:55;;;;;;;45.30;42.10;;;16.80;99.90;;;;;;5070979;28;20107;-64
2021/04/30 11:39:28;;;;;;;45.00;41.90;;;16.80;99.90;;;;;;5072041;28;20024;-66
2021/04/30 11:42:03;;;;;;;45.92;42.83;;;16.70;99.90;;;;;;4989542;28;2352887;-65
2021/04/30 11:44:30;;;;;;;46.50;43.20;;;16.60;99.90;;;;;;5072864;28;20031;-64
2021/04/30 11:47:03;;;;;;;45.72;42.63;;;16.70;99.90;;;;;;5072743;28;20048;-64
2021/04/30 11:49:35;;;;;;;46.70;43.70;;;16.60;99.90;;;;;;5072857;28;20385;-64
2021/04/30 11:52:03;;;;;;;46.75;43.65;;;16.60;99.90;;;;;;5072815;28;20017;-65
2021/04/30 11:54:35;;;;;;;46.53;43.33;;;16.60;99.90;;;;;;5072709;28;20023;-64
2021/04/30 11:57:07;;;;;;;46.97;43.83;;;16.50;99.90;;;;;;5071773;28;20109;-64
2021/04/30 11:59:36;;;;;;;45.88;42.67;;;16.50;99.90;;;;;;5072809;28;20044;-65
2021/04/30 12:02:07;;;;;;;45.80;42.47;;;16.50;99.90;;;;;;5072624;28;20412;-64
2021/04/30 12:04:56;;;;;;;46.33;43.05;;;16.50;99.90;;;;;;5072799;28;20039;-64
2021/04/30 12:07:29;;;;;;;47.22;44.05;;;16.40;99.90;;;;;;5072627;28;20024;-64
2021/04/30 12:09:56;;;;;;;47.78;44.55;;;16.40;99.90;;;;;;5072494;28;20040;-64
2021/04/30 12:12:28;;;;;;;52.50;49.35;;;16.30;99.90;;;;;;5072580;28;20025;-64
2021/04/30 12:15:05;;;;;;;51.85;48.55;;;16.30;99.90;;;;;;5072674;28;20046;-64
2021/04/30 12:17:36;;;;;;;52.83;49.58;;;16.30;99.90;;;;;;5072564;28;20153;-65
2021/04/30 12:20:12;;;;;;;52.10;48.78;;;16.30;99.90;;;;;;5072476;28;20032;-65
2021/04/30 12:22:47;;;;;;;51.55;48.15;;;16.40;99.90;;;;;;5072573;28;20152;-66
2021/04/30 12:25:26;;;;;;;50.20;46.90;;;16.40;99.90;;;;;;5072526;28;20028;-64
2021/04/30 12:27:54;;;;;;;49.33;45.80;;;16.40;99.90;;;;;;5072344;28;20031;-65
2021/04/30 12:30:32;;;;;;;49.65;46.35;;;16.40;99.90;;;;;;5072573;28;20479;-64
2021/04/30 12:33:00;;;;;;;48.05;44.85;;;16.40;99.90;;;;;;5072375;28;20542;-64
2021/04/30 12:35:29;;;;;;;47.65;44.50;;;16.30;99.90;;;;;;5072455;28;20025;-64
2021/04/30 12:37:56;;;;;;;48.35;45.05;;;16.40;99.90;;;;;;5072359;28;20048;-64
2021/04/30 12:40:31;;;;;;;49.00;45.60;;;16.40;99.90;;;;;;5073917;28;20036;-64
2021/04/30 12:42:59;;;;;;;49.22;45.95;;;16.40;99.90;;;;;;5075756;28;20037;-67
2021/04/30 12:45:27;;;;;;;49.28;45.97;;;16.40;99.90;;;;;;5075862;28;20450;-66
2021/04/30 12:47:56;;;;;;;51.00;47.60;;;16.40;99.90;;;;;;5074523;28;20107;-66
2021/04/30 12:50:27;;;;;;;50.03;46.40;;;16.30;99.90;;;;;;5075776;28;20024;-65
2021/04/30 12:52:57;;;;;;;50.70;47.40;;;16.30;99.90;;;;;;5075851;28;20029;-66
2021/04/30 12:55:29;;;;;;;49.67;46.47;;;16.30;99.90;;;;;;5075693;28;20031;-66